sensor_id;sensor_type;location;lat;lon;timestamp;P1;durP1;ratioP1;P2;durP2;ratioP2
66933;SDS011;53846;51.984;5.890;2022-10-16T00:01:55;184.67;;;175.37;;
66933;SDS011;53846;51.984;5.890;2022-10-16T00:04:24;178.40;;;169.37;;
66933;SDS011;53846;51.984;5.890;2022-10-16T00:06:53;192.57;;;182.73;;
66933;SDS011;53846;51.984;5.890;2022-10-16T00:09:25;178.90;;;169.83;;
66933;SDS011;53846;51.984;5.890;2022-10-16T00:11:54;182.20;;;172.90;;
66933;SDS011;53846;51.984;5.890;2022-10-16T00:14:23;39.30;;;37.40;;
66933;SDS011;53846;51.984;5.890;2022-10-16T00:16:52;115.87;;;109.97;;
66933;SDS011;53846;51.984;5.890;2022-10-16T00:19:21;152.73;;;144.97;;
66933;SDS011;53846;51.984;5.890;2022-10-16T00:21:51;172.00;;;163.17;;
66933;SDS011;53846;51.984;5.890;2022-10-16T00:24:20;181.40;;;172.13;;
66933;SDS011;53846;51.984;5.890;2022-10-16T00:26:52;93.93;;;89.23;;
66933;SDS011;53846;51.984;5.890;2022-10-16T00:29:21;108.57;;;103.00;;
66933;SDS011;53846;51.984;5.890;2022-10-16T00:31:50;110.33;;;104.73;;
66933;SDS011;53846;51.984;5.890;2022-10-16T00:34:19;155.83;;;147.63;;
66933;SDS011;53846;51.984;5.890;2022-10-16T00:36:48;167.90;;;159.23;;
66933;SDS011;53846;51.984;5.890;2022-10-16T00:39:18;166.07;;;157.57;;
66933;SDS011;53846;51.984;5.890;2022-10-16T00:41:47;181.33;;;172.03;;
66933;SDS011;53846;51.984;5.890;2022-10-16T00:47:17;190.07;;;180.30;;
66933;SDS011;53846;51.984;5.890;2022-10-16T00:49:50;192.00;;;182.23;;
66933;SDS011;53846;51.984;5.890;2022-10-16T00:52:24;162.87;;;154.57;;
66933;SDS011;53846;51.984;5.890;2022-10-16T00:54:53;179.67;;;170.53;;
66933;SDS011;53846;51.984;5.890;2022-10-16T00:57:23;179.40;;;170.27;;
66933;SDS011;53846;51.984;5.890;2022-10-16T00:59:56;157.40;;;149.27;;
66933;SDS011;53846;51.984;5.890;2022-10-16T01:02:26;180.43;;;171.33;;
66933;SDS011;53846;51.984;5.890;2022-10-16T01:04:55;177.20;;;168.07;;
66933;SDS011;53846;51.984;5.890;2022-10-16T01:07:28;165.27;;;156.87;;
66933;SDS011;53846;51.984;5.890;2022-10-16T01:10:10;139.20;;;132.23;;
66933;SDS011;53846;51.984;5.890;2022-10-16T01:12:50;169.17;;;160.57;;
66933;SDS011;53846;51.984;5.890;2022-10-16T01:15:27;158.03;;;150.07;;
66933;SDS011;53846;51.984;5.890;2022-10-16T01:18:00;181.83;;;172.50;;
66933;SDS011;53846;51.984;5.890;2022-10-16T01:20:34;189.00;;;179.47;;
66933;SDS011;53846;51.984;5.890;2022-10-16T01:23:09;193.43;;;183.70;;
66933;SDS011;53846;51.984;5.890;2022-10-16T01:25:49;194.83;;;184.83;;
66933;SDS011;53846;51.984;5.890;2022-10-16T01:28:31;193.77;;;183.83;;
66933;SDS011;53846;51.984;5.890;2022-10-16T01:31:04;189.47;;;179.80;;
66933;SDS011;53846;51.984;5.890;2022-10-16T01:33:35;206.20;;;195.70;;
66933;SDS011;53846;51.984;5.890;2022-10-16T01:36:10;208.60;;;197.83;;
66933;SDS011;53846;51.984;5.890;2022-10-16T01:38:41;222.03;;;210.77;;
66933;SDS011;53846;51.984;5.890;2022-10-16T01:41:14;117.57;;;111.53;;
66933;SDS011;53846;51.984;5.890;2022-10-16T01:43:52;190.63;;;180.83;;
66933;SDS011;53846;51.984;5.890;2022-10-16T01:46:25;188.97;;;179.30;;
66933;SDS011;53846;51.984;5.890;2022-10-16T01:48:56;175.93;;;166.93;;
66933;SDS011;53846;51.984;5.890;2022-10-16T01:51:27;167.60;;;158.93;;
66933;SDS011;53846;51.984;5.890;2022-10-16T01:53:58;197.67;;;187.60;;
66933;SDS011;53846;51.984;5.890;2022-10-16T01:56:29;190.03;;;180.20;;
66933;SDS011;53846;51.984;5.890;2022-10-16T01:59:02;195.33;;;185.30;;
66933;SDS011;53846;51.984;5.890;2022-10-16T02:01:36;189.50;;;179.83;;
66933;SDS011;53846;51.984;5.890;2022-10-16T02:04:11;191.03;;;181.43;;
66933;SDS011;53846;51.984;5.890;2022-10-16T02:06:43;180.57;;;171.37;;
66933;SDS011;53846;51.984;5.890;2022-10-16T02:09:13;188.13;;;178.50;;
66933;SDS011;53846;51.984;5.890;2022-10-16T02:11:42;198.50;;;188.43;;
66933;SDS011;53846;51.984;5.890;2022-10-16T02:14:15;183.63;;;174.00;;
66933;SDS011;53846;51.984;5.890;2022-10-16T02:16:45;196.57;;;186.67;;
66933;SDS011;53846;51.984;5.890;2022-10-16T02:19:15;210.47;;;199.67;;
66933;SDS011;53846;51.984;5.890;2022-10-16T02:21:47;211.30;;;200.50;;
66933;SDS011;53846;51.984;5.890;2022-10-16T02:24:19;198.20;;;188.07;;
66933;SDS011;53846;51.984;5.890;2022-10-16T02:26:56;193.90;;;184.00;;
66933;SDS011;53846;51.984;5.890;2022-10-16T02:29:33;161.80;;;153.53;;
66933;SDS011;53846;51.984;5.890;2022-10-16T02:32:10;192.83;;;182.93;;
66933;SDS011;53846;51.984;5.890;2022-10-16T02:34:43;170.20;;;161.63;;
66933;SDS011;53846;51.984;5.890;2022-10-16T02:37:14;150.17;;;142.50;;
66933;SDS011;53846;51.984;5.890;2022-10-16T02:39:44;153.70;;;145.77;;
66933;SDS011;53846;51.984;5.890;2022-10-16T02:42:14;134.30;;;127.50;;
66933;SDS011;53846;51.984;5.890;2022-10-16T02:44:46;171.83;;;163.17;;
66933;SDS011;53846;51.984;5.890;2022-10-16T02:47:15;154.07;;;146.13;;
66933;SDS011;53846;51.984;5.890;2022-10-16T02:49:44;182.03;;;172.70;;
66933;SDS011;53846;51.984;5.890;2022-10-16T02:52:13;193.90;;;184.07;;
66933;SDS011;53846;51.984;5.890;2022-10-16T02:54:42;210.37;;;199.63;;
66933;SDS011;53846;51.984;5.890;2022-10-16T02:57:12;170.98;;;162.27;;
66933;SDS011;53846;51.984;5.890;2022-10-16T02:59:41;186.20;;;176.73;;
66933;SDS011;53846;51.984;5.890;2022-10-16T03:02:13;193.90;;;184.00;;
66933;SDS011;53846;51.984;5.890;2022-10-16T03:04:42;190.87;;;181.20;;
66933;SDS011;53846;51.984;5.890;2022-10-16T03:07:11;193.90;;;184.10;;
66933;SDS011;53846;51.984;5.890;2022-10-16T03:09:40;192.00;;;182.30;;
66933;SDS011;53846;51.984;5.890;2022-10-16T03:12:10;88.55;;;83.95;;
66933;SDS011;53846;51.984;5.890;2022-10-16T03:14:39;172.30;;;163.60;;
66933;SDS011;53846;51.984;5.890;2022-10-16T03:17:08;169.93;;;161.27;;
66933;SDS011;53846;51.984;5.890;2022-10-16T03:19:41;180.40;;;171.27;;
66933;SDS011;53846;51.984;5.890;2022-10-16T03:22:10;193.17;;;183.20;;
66933;SDS011;53846;51.984;5.890;2022-10-16T03:24:39;184.00;;;174.57;;
66933;SDS011;53846;51.984;5.890;2022-10-16T03:27:08;163.40;;;155.10;;
66933;SDS011;53846;51.984;5.890;2022-10-16T03:29:37;171.17;;;162.43;;
66933;SDS011;53846;51.984;5.890;2022-10-16T03:32:06;187.40;;;177.73;;
66933;SDS011;53846;51.984;5.890;2022-10-16T03:34:36;196.60;;;186.57;;
66933;SDS011;53846;51.984;5.890;2022-10-16T03:37:07;203.13;;;192.73;;
66933;SDS011;53846;51.984;5.890;2022-10-16T03:39:37;198.10;;;187.90;;
66933;SDS011;53846;51.984;5.890;2022-10-16T03:42:06;175.87;;;166.80;;
66933;SDS011;53846;51.984;5.890;2022-10-16T03:44:35;175.70;;;166.57;;
66933;SDS011;53846;51.984;5.890;2022-10-16T03:47:04;217.33;;;206.47;;
66933;SDS011;53846;51.984;5.890;2022-10-16T03:49:33;179.20;;;170.10;;
66933;SDS011;53846;51.984;5.890;2022-10-16T03:52:03;199.90;;;189.67;;
66933;SDS011;53846;51.984;5.890;2022-10-16T03:54:35;191.13;;;181.47;;
66933;SDS011;53846;51.984;5.890;2022-10-16T03:57:04;207.50;;;196.90;;
66933;SDS011;53846;51.984;5.890;2022-10-16T03:59:33;201.60;;;191.10;;
66933;SDS011;53846;51.984;5.890;2022-10-16T04:02:02;187.70;;;178.17;;
66933;SDS011;53846;51.984;5.890;2022-10-16T04:04:32;207.57;;;197.20;;
66933;SDS011;53846;51.984;5.890;2022-10-16T04:07:01;207.83;;;197.20;;
66933;SDS011;53846;51.984;5.890;2022-10-16T04:09:30;187.77;;;178.17;;
66933;SDS011;53846;51.984;5.890;2022-10-16T04:12:02;201.77;;;191.33;;
66933;SDS011;53846;51.984;5.890;2022-10-16T04:14:31;204.53;;;194.17;;
66933;SDS011;53846;51.984;5.890;2022-10-16T04:17:00;207.00;;;196.50;;
66933;SDS011;53846;51.984;5.890;2022-10-16T04:19:30;216.13;;;205.20;;
66933;SDS011;53846;51.984;5.890;2022-10-16T04:21:59;205.67;;;195.23;;
66933;SDS011;53846;51.984;5.890;2022-10-16T04:24:28;199.07;;;188.80;;
66933;SDS011;53846;51.984;5.890;2022-10-16T04:26:57;34.38;;;32.60;;
66933;SDS011;53846;51.984;5.890;2022-10-16T04:29:29;152.43;;;144.57;;
66933;SDS011;53846;51.984;5.890;2022-10-16T04:31:58;165.30;;;156.90;;
66933;SDS011;53846;51.984;5.890;2022-10-16T04:34:27;180.30;;;171.10;;
66933;SDS011;53846;51.984;5.890;2022-10-16T04:36:56;181.57;;;172.27;;
66933;SDS011;53846;51.984;5.890;2022-10-16T04:39:25;179.40;;;170.40;;
66933;SDS011;53846;51.984;5.890;2022-10-16T04:41:55;162.23;;;154.03;;
66933;SDS011;53846;51.984;5.890;2022-10-16T04:44:24;189.57;;;180.03;;
66933;SDS011;53846;51.984;5.890;2022-10-16T04:46:56;172.90;;;164.07;;
66933;SDS011;53846;51.984;5.890;2022-10-16T04:49:25;189.43;;;179.73;;
66933;SDS011;53846;51.984;5.890;2022-10-16T04:51:54;195.13;;;185.20;;
66933;SDS011;53846;51.984;5.890;2022-10-16T04:54:23;174.70;;;165.73;;
66933;SDS011;53846;51.984;5.890;2022-10-16T04:56:52;168.90;;;160.40;;
66933;SDS011;53846;51.984;5.890;2022-10-16T04:59:22;182.43;;;173.20;;
66933;SDS011;53846;51.984;5.890;2022-10-16T05:01:51;187.87;;;178.30;;
66933;SDS011;53846;51.984;5.890;2022-10-16T05:04:23;182.90;;;173.40;;
66933;SDS011;53846;51.984;5.890;2022-10-16T05:06:52;180.70;;;171.43;;
66933;SDS011;53846;51.984;5.890;2022-10-16T05:09:21;195.43;;;185.33;;
66933;SDS011;53846;51.984;5.890;2022-10-16T05:11:51;170.53;;;161.93;;
66933;SDS011;53846;51.984;5.890;2022-10-16T05:14:20;184.43;;;174.87;;
66933;SDS011;53846;51.984;5.890;2022-10-16T05:16:49;195.57;;;185.60;;
66933;SDS011;53846;51.984;5.890;2022-10-16T05:19:18;204.90;;;194.43;;
66933;SDS011;53846;51.984;5.890;2022-10-16T05:21:50;216.93;;;205.80;;
66933;SDS011;53846;51.984;5.890;2022-10-16T05:24:19;227.60;;;215.93;;
66933;SDS011;53846;51.984;5.890;2022-10-16T05:26:49;217.93;;;206.90;;
66933;SDS011;53846;51.984;5.890;2022-10-16T05:29:18;189.57;;;179.80;;
66933;SDS011;53846;51.984;5.890;2022-10-16T05:31:49;211.00;;;200.33;;
66933;SDS011;53846;51.984;5.890;2022-10-16T05:34:20;198.80;;;188.67;;
66933;SDS011;53846;51.984;5.890;2022-10-16T05:36:52;190.13;;;180.43;;
66933;SDS011;53846;51.984;5.890;2022-10-16T05:39:21;188.47;;;178.87;;
66933;SDS011;53846;51.984;5.890;2022-10-16T05:41:50;198.63;;;188.37;;
66933;SDS011;53846;51.984;5.890;2022-10-16T05:44:19;198.77;;;188.77;;
66933;SDS011;53846;51.984;5.890;2022-10-16T05:46:49;194.17;;;184.30;;
66933;SDS011;53846;51.984;5.890;2022-10-16T05:49:18;179.60;;;170.40;;
66933;SDS011;53846;51.984;5.890;2022-10-16T05:51:47;193.00;;;183.17;;
66933;SDS011;53846;51.984;5.890;2022-10-16T05:54:19;25.00;;;23.80;;
66933;SDS011;53846;51.984;5.890;2022-10-16T05:56:48;155.00;;;147.10;;
66933;SDS011;53846;51.984;5.890;2022-10-16T05:59:17;201.10;;;190.83;;
66933;SDS011;53846;51.984;5.890;2022-10-16T06:01:46;210.40;;;199.67;;
66933;SDS011;53846;51.984;5.890;2022-10-16T06:04:15;190.63;;;180.93;;
66933;SDS011;53846;51.984;5.890;2022-10-16T06:06:44;225.33;;;213.73;;
66933;SDS011;53846;51.984;5.890;2022-10-16T06:09:14;215.47;;;204.40;;
66933;SDS011;53846;51.984;5.890;2022-10-16T06:11:45;217.37;;;206.43;;
66933;SDS011;53846;51.984;5.890;2022-10-16T06:14:15;180.67;;;171.43;;
66933;SDS011;53846;51.984;5.890;2022-10-16T06:16:44;218.17;;;207.07;;
66933;SDS011;53846;51.984;5.890;2022-10-16T06:19:14;225.53;;;213.97;;
66933;SDS011;53846;51.984;5.890;2022-10-16T06:21:43;231.27;;;219.23;;
66933;SDS011;53846;51.984;5.890;2022-10-16T06:24:12;232.13;;;219.93;;
66933;SDS011;53846;51.984;5.890;2022-10-16T06:26:41;240.17;;;227.87;;
66933;SDS011;53846;51.984;5.890;2022-10-16T06:29:13;229.43;;;217.73;;
66933;SDS011;53846;51.984;5.890;2022-10-16T06:31:42;247.03;;;234.47;;
66933;SDS011;53846;51.984;5.890;2022-10-16T06:34:11;231.63;;;219.80;;
66933;SDS011;53846;51.984;5.890;2022-10-16T06:36:41;211.13;;;200.33;;
66933;SDS011;53846;51.984;5.890;2022-10-16T06:39:10;233.77;;;221.80;;
66933;SDS011;53846;51.984;5.890;2022-10-16T06:41:39;230.53;;;218.50;;
66933;SDS011;53846;51.984;5.890;2022-10-16T06:44:17;235.13;;;223.13;;
66933;SDS011;53846;51.984;5.890;2022-10-16T06:46:46;232.63;;;220.63;;
66933;SDS011;53846;51.984;5.890;2022-10-16T06:49:15;242.17;;;229.73;;
66933;SDS011;53846;51.984;5.890;2022-10-16T06:51:48;196.37;;;186.30;;
66933;SDS011;53846;51.984;5.890;2022-10-16T06:54:17;195.52;;;185.43;;
66933;SDS011;53846;51.984;5.890;2022-10-16T06:56:46;165.67;;;157.27;;
66933;SDS011;53846;51.984;5.890;2022-10-16T06:59:18;173.05;;;164.20;;
66933;SDS011;53846;51.984;5.890;2022-10-16T07:01:47;181.55;;;172.15;;
66933;SDS011;53846;51.984;5.890;2022-10-16T07:04:16;159.67;;;151.47;;
66933;SDS011;53846;51.984;5.890;2022-10-16T07:06:45;153.30;;;145.55;;
66933;SDS011;53846;51.984;5.890;2022-10-16T07:09:15;151.27;;;143.38;;
66933;SDS011;53846;51.984;5.890;2022-10-16T07:11:44;149.75;;;142.13;;
66933;SDS011;53846;51.984;5.890;2022-10-16T07:14:15;164.45;;;155.95;;
66933;SDS011;53846;51.984;5.890;2022-10-16T07:16:48;123.97;;;117.60;;
66933;SDS011;53846;51.984;5.890;2022-10-16T07:19:17;37.45;;;35.65;;
66933;SDS011;53846;51.984;5.890;2022-10-16T07:21:46;79.82;;;75.72;;
66933;SDS011;53846;51.984;5.890;2022-10-16T07:24:16;111.30;;;105.55;;
66933;SDS011;53846;51.984;5.890;2022-10-16T07:26:45;94.63;;;89.85;;
66933;SDS011;53846;51.984;5.890;2022-10-16T07:29:15;116.47;;;110.28;;
66933;SDS011;53846;51.984;5.890;2022-10-16T07:31:49;155.07;;;147.02;;
66933;SDS011;53846;51.984;5.890;2022-10-16T07:34:19;162.90;;;154.63;;
66933;SDS011;53846;51.984;5.890;2022-10-16T07:36:50;156.55;;;148.57;;
66933;SDS011;53846;51.984;5.890;2022-10-16T07:39:19;106.60;;;101.20;;
66933;SDS011;53846;51.984;5.890;2022-10-16T07:41:48;154.90;;;146.95;;
66933;SDS011;53846;51.984;5.890;2022-10-16T07:44:20;193.77;;;183.85;;
66933;SDS011;53846;51.984;5.890;2022-10-16T07:46:49;161.23;;;153.05;;
66933;SDS011;53846;51.984;5.890;2022-10-16T07:49:19;103.47;;;98.25;;
66933;SDS011;53846;51.984;5.890;2022-10-16T07:51:48;115.03;;;109.22;;
66933;SDS011;53846;51.984;5.890;2022-10-16T07:54:17;128.88;;;122.25;;
66933;SDS011;53846;51.984;5.890;2022-10-16T07:56:46;69.55;;;66.05;;
66933;SDS011;53846;51.984;5.890;2022-10-16T07:59:15;57.55;;;54.67;;
66933;SDS011;53846;51.984;5.890;2022-10-16T08:01:47;37.58;;;34.92;;
66933;SDS011;53846;51.984;5.890;2022-10-16T08:04:17;33.72;;;32.08;;
66933;SDS011;53846;51.984;5.890;2022-10-16T08:06:46;39.35;;;37.45;;
66933;SDS011;53846;51.984;5.890;2022-10-16T08:09:16;36.50;;;34.70;;
66933;SDS011;53846;51.984;5.890;2022-10-16T08:11:45;68.00;;;64.60;;
66933;SDS011;53846;51.984;5.890;2022-10-16T08:14:14;94.53;;;89.78;;
66933;SDS011;53846;51.984;5.890;2022-10-16T08:16:43;122.25;;;113.88;;
66933;SDS011;53846;51.984;5.890;2022-10-16T08:19:15;125.03;;;118.90;;
66933;SDS011;53846;51.984;5.890;2022-10-16T08:21:46;125.03;;;118.85;;
66933;SDS011;53846;51.984;5.890;2022-10-16T08:24:16;102.70;;;97.70;;
66933;SDS011;53846;51.984;5.890;2022-10-16T08:26:45;81.60;;;77.60;;
66933;SDS011;53846;51.984;5.890;2022-10-16T08:29:14;71.45;;;68.00;;
66933;SDS011;53846;51.984;5.890;2022-10-16T08:31:43;57.20;;;54.42;;
66933;SDS011;53846;51.984;5.890;2022-10-16T08:34:15;65.25;;;62.08;;
66933;SDS011;53846;51.984;5.890;2022-10-16T08:36:44;75.47;;;71.78;;
66933;SDS011;53846;51.984;5.890;2022-10-16T08:39:13;90.63;;;86.18;;
66933;SDS011;53846;51.984;5.890;2022-10-16T08:47:45;100.05;;;95.15;;
66933;SDS011;53846;51.984;5.890;2022-10-16T08:50:24;85.80;;;81.60;;
66933;SDS011;53846;51.984;5.890;2022-10-16T08:52:55;69.13;;;65.63;;
66933;SDS011;53846;51.984;5.890;2022-10-16T08:55:30;97.88;;;93.05;;
66933;SDS011;53846;51.984;5.890;2022-10-16T08:58:05;89.72;;;84.85;;
66933;SDS011;53846;51.984;5.890;2022-10-16T09:00:40;26.58;;;25.27;;
66933;SDS011;53846;51.984;5.890;2022-10-16T09:03:14;28.42;;;27.05;;
66933;SDS011;53846;51.984;5.890;2022-10-16T09:08:59;22.42;;;21.40;;
66933;SDS011;53846;51.984;5.890;2022-10-16T09:11:45;19.48;;;18.58;;
66933;SDS011;53846;51.984;5.890;2022-10-16T09:14:32;19.00;;;18.15;;
66933;SDS011;53846;51.984;5.890;2022-10-16T09:17:13;13.60;;;13.00;;
66933;SDS011;53846;51.984;5.890;2022-10-16T09:19:51;18.73;;;17.83;;
66933;SDS011;53846;51.984;5.890;2022-10-16T09:22:27;53.97;;;51.33;;
66933;SDS011;53846;51.984;5.890;2022-10-16T09:24:58;97.18;;;92.40;;
66933;SDS011;53846;51.984;5.890;2022-10-16T09:27:30;154.93;;;147.52;;
66933;SDS011;53846;51.984;5.890;2022-10-16T09:29:59;194.40;;;185.38;;
66933;SDS011;53846;51.984;5.890;2022-10-16T09:32:28;220.00;;;209.85;;
66933;SDS011;53846;51.984;5.890;2022-10-16T09:34:59;195.70;;;186.57;;
66933;SDS011;53846;51.984;5.890;2022-10-16T09:37:30;197.93;;;188.30;;
66933;SDS011;53846;51.984;5.890;2022-10-16T09:40:00;131.27;;;124.97;;
66933;SDS011;53846;51.984;5.890;2022-10-16T09:42:31;122.68;;;116.80;;
66933;SDS011;53846;51.984;5.890;2022-10-16T09:45:03;80.22;;;76.30;;
66933;SDS011;53846;51.984;5.890;2022-10-16T09:47:36;50.85;;;48.40;;
66933;SDS011;53846;51.984;5.890;2022-10-16T09:50:19;26.50;;;25.30;;
66933;SDS011;53846;51.984;5.890;2022-10-16T09:53:05;21.48;;;20.50;;
66933;SDS011;53846;51.984;5.890;2022-10-16T09:55:49;21.50;;;20.50;;
66933;SDS011;53846;51.984;5.890;2022-10-16T09:58:20;17.92;;;17.10;;
66933;SDS011;53846;51.984;5.890;2022-10-16T10:00:50;23.08;;;21.98;;
66933;SDS011;53846;51.984;5.890;2022-10-16T10:03:33;29.33;;;27.98;;
66933;SDS011;53846;51.984;5.890;2022-10-16T10:06:06;25.60;;;24.42;;
66933;SDS011;53846;51.984;5.890;2022-10-16T10:09:02;22.50;;;21.48;;
66933;SDS011;53846;51.984;5.890;2022-10-16T10:11:41;28.88;;;27.55;;
66933;SDS011;53846;51.984;5.890;2022-10-16T10:14:22;37.50;;;35.75;;
66933;SDS011;53846;51.984;5.890;2022-10-16T10:17:01;33.67;;;32.13;;
66933;SDS011;53846;51.984;5.890;2022-10-16T10:19:38;35.90;;;34.22;;
66933;SDS011;53846;51.984;5.890;2022-10-16T10:22:19;31.75;;;30.20;;
66933;SDS011;53846;51.984;5.890;2022-10-16T10:24:57;33.63;;;31.95;;
66933;SDS011;53846;51.984;5.890;2022-10-16T10:27:46;43.78;;;41.75;;
66933;SDS011;53846;51.984;5.890;2022-10-16T10:30:40;38.38;;;36.58;;
66933;SDS011;53846;51.984;5.890;2022-10-16T10:33:20;43.95;;;41.85;;
66933;SDS011;53846;51.984;5.890;2022-10-16T10:35:56;49.35;;;47.05;;
66933;SDS011;53846;51.984;5.890;2022-10-16T10:38:36;52.30;;;49.80;;
66933;SDS011;53846;51.984;5.890;2022-10-16T10:41:19;38.72;;;36.92;;
66933;SDS011;53846;51.984;5.890;2022-10-16T10:44:07;45.22;;;43.10;;
66933;SDS011;53846;51.984;5.890;2022-10-16T10:46:45;49.42;;;47.10;;
66933;SDS011;53846;51.984;5.890;2022-10-16T10:49:26;51.20;;;48.80;;
66933;SDS011;53846;51.984;5.890;2022-10-16T10:52:07;48.92;;;46.65;;
66933;SDS011;53846;51.984;5.890;2022-10-16T10:54:54;44.50;;;42.42;;
66933;SDS011;53846;51.984;5.890;2022-10-16T10:57:34;41.47;;;39.25;;
66933;SDS011;53846;51.984;5.890;2022-10-16T11:00:13;22.38;;;21.38;;
66933;SDS011;53846;51.984;5.890;2022-10-16T11:02:50;20.23;;;19.33;;
66933;SDS011;53846;51.984;5.890;2022-10-16T11:08:19;46.53;;;44.15;;
66933;SDS011;53846;51.984;5.890;2022-10-16T11:10:51;49.30;;;47.00;;
66933;SDS011;53846;51.984;5.890;2022-10-16T11:13:30;47.58;;;45.38;;
66933;SDS011;53846;51.984;5.890;2022-10-16T11:16:03;46.33;;;44.15;;
66933;SDS011;53846;51.984;5.890;2022-10-16T11:18:42;47.33;;;45.13;;
66933;SDS011;53846;51.984;5.890;2022-10-16T11:21:18;41.10;;;39.20;;
66933;SDS011;53846;51.984;5.890;2022-10-16T11:23:51;52.97;;;49.58;;
66933;SDS011;53846;51.984;5.890;2022-10-16T11:26:24;41.75;;;39.80;;
66933;SDS011;53846;51.984;5.890;2022-10-16T11:28:59;40.13;;;38.22;;
66933;SDS011;53846;51.984;5.890;2022-10-16T11:31:32;39.90;;;38.03;;
66933;SDS011;53846;51.984;5.890;2022-10-16T11:34:07;43.20;;;41.20;;
66933;SDS011;53846;51.984;5.890;2022-10-16T11:36:44;39.65;;;37.85;;
66933;SDS011;53846;51.984;5.890;2022-10-16T11:39:19;37.42;;;35.72;;
66933;SDS011;53846;51.984;5.890;2022-10-16T11:41:50;43.13;;;41.13;;
66933;SDS011;53846;51.984;5.890;2022-10-16T11:44:32;47.78;;;44.83;;
66933;SDS011;53846;51.984;5.890;2022-10-16T11:47:09;62.58;;;59.53;;
66933;SDS011;53846;51.984;5.890;2022-10-16T11:49:49;34.72;;;33.13;;
66933;SDS011;53846;51.984;5.890;2022-10-16T11:52:22;28.00;;;26.70;;
66933;SDS011;53846;51.984;5.890;2022-10-16T11:54:59;34.22;;;32.63;;
66933;SDS011;53846;51.984;5.890;2022-10-16T11:57:34;43.63;;;41.60;;
66933;SDS011;53846;51.984;5.890;2022-10-16T12:00:14;36.80;;;35.10;;
66933;SDS011;53846;51.984;5.890;2022-10-16T12:02:52;27.25;;;25.98;;
66933;SDS011;53846;51.984;5.890;2022-10-16T12:05:28;25.30;;;24.17;;
66933;SDS011;53846;51.984;5.890;2022-10-16T12:08:09;33.45;;;31.85;;
66933;SDS011;53846;51.984;5.890;2022-10-16T12:10:41;34.40;;;32.80;;
66933;SDS011;53846;51.984;5.890;2022-10-16T12:13:28;36.17;;;34.47;;
66933;SDS011;53846;51.984;5.890;2022-10-16T12:16:19;30.30;;;28.90;;
66933;SDS011;53846;51.984;5.890;2022-10-16T12:18:50;21.58;;;20.58;;
66933;SDS011;53846;51.984;5.890;2022-10-16T12:21:38;20.00;;;19.10;;
66933;SDS011;53846;51.984;5.890;2022-10-16T12:24:18;20.00;;;19.10;;
66933;SDS011;53846;51.984;5.890;2022-10-16T12:26:58;19.30;;;18.40;;
66933;SDS011;53846;51.984;5.890;2022-10-16T12:29:35;17.90;;;17.10;;
66933;SDS011;53846;51.984;5.890;2022-10-16T12:32:27;15.52;;;14.82;;
66933;SDS011;53846;51.984;5.890;2022-10-16T12:34:59;12.90;;;12.32;;
66933;SDS011;53846;51.984;5.890;2022-10-16T12:37:30;9.13;;;8.73;;
66933;SDS011;53846;51.984;5.890;2022-10-16T12:40:11;7.93;;;7.63;;
66933;SDS011;53846;51.984;5.890;2022-10-16T12:42:42;6.13;;;5.93;;
66933;SDS011;53846;51.984;5.890;2022-10-16T12:45:23;6.72;;;6.43;;
66933;SDS011;53846;51.984;5.890;2022-10-16T12:47:58;5.10;;;4.90;;
66933;SDS011;53846;51.984;5.890;2022-10-16T12:50:30;4.82;;;4.63;;
66933;SDS011;53846;51.984;5.890;2022-10-16T12:53:03;5.60;;;5.38;;
66933;SDS011;53846;51.984;5.890;2022-10-16T12:55:47;5.45;;;5.25;;
66933;SDS011;53846;51.984;5.890;2022-10-16T13:01:28;4.93;;;4.72;;
66933;SDS011;53846;51.984;5.890;2022-10-16T13:04:13;5.82;;;5.63;;
66933;SDS011;53846;51.984;5.890;2022-10-16T13:06:55;6.65;;;6.35;;
66933;SDS011;53846;51.984;5.890;2022-10-16T13:09:40;35.40;;;33.60;;
66933;SDS011;53846;51.984;5.890;2022-10-16T13:12:27;29.38;;;28.00;;
66933;SDS011;53846;51.984;5.890;2022-10-16T13:15:16;26.58;;;25.30;;
66933;SDS011;53846;51.984;5.890;2022-10-16T13:17:55;15.23;;;14.50;;
66933;SDS011;53846;51.984;5.890;2022-10-16T13:20:33;9.25;;;8.85;;
66933;SDS011;53846;51.984;5.890;2022-10-16T13:23:20;7.65;;;7.25;;
66933;SDS011;53846;51.984;5.890;2022-10-16T13:25:57;5.68;;;5.47;;
66933;SDS011;53846;51.984;5.890;2022-10-16T13:28:35;6.18;;;5.88;;
66933;SDS011;53846;51.984;5.890;2022-10-16T13:31:09;6.43;;;6.18;;
66933;SDS011;53846;51.984;5.890;2022-10-16T13:33:45;6.22;;;5.93;;
66933;SDS011;53846;51.984;5.890;2022-10-16T13:36:21;6.03;;;5.82;;
66933;SDS011;53846;51.984;5.890;2022-10-16T13:38:59;7.18;;;6.88;;
66933;SDS011;53846;51.984;5.890;2022-10-16T13:41:33;7.00;;;6.70;;
66933;SDS011;53846;51.984;5.890;2022-10-16T13:44:02;6.47;;;6.18;;
66933;SDS011;53846;51.984;5.890;2022-10-16T13:46:32;9.77;;;6.80;;
66933;SDS011;53846;51.984;5.890;2022-10-16T13:49:01;6.35;;;6.05;;
66933;SDS011;53846;51.984;5.890;2022-10-16T13:51:34;6.80;;;6.50;;
66933;SDS011;53846;51.984;5.890;2022-10-16T13:54:03;8.25;;;7.85;;
66933;SDS011;53846;51.984;5.890;2022-10-16T13:56:32;7.85;;;7.55;;
66933;SDS011;53846;51.984;5.890;2022-10-16T13:59:02;5.65;;;5.45;;
66933;SDS011;53846;51.984;5.890;2022-10-16T14:01:34;6.45;;;6.18;;
66933;SDS011;53846;51.984;5.890;2022-10-16T14:04:09;6.65;;;6.35;;
66933;SDS011;53846;51.984;5.890;2022-10-16T14:06:43;32.03;;;7.63;;
66933;SDS011;53846;51.984;5.890;2022-10-16T14:09:17;9.35;;;8.75;;
66933;SDS011;53846;51.984;5.890;2022-10-16T14:11:52;11.10;;;10.50;;
66933;SDS011;53846;51.984;5.890;2022-10-16T14:14:24;10.82;;;10.35;;
66933;SDS011;53846;51.984;5.890;2022-10-16T14:16:55;8.40;;;8.05;;
66933;SDS011;53846;51.984;5.890;2022-10-16T14:19:26;8.90;;;8.40;;
66933;SDS011;53846;51.984;5.890;2022-10-16T14:21:59;6.82;;;6.53;;
66933;SDS011;53846;51.984;5.890;2022-10-16T14:24:31;5.78;;;5.57;;
66933;SDS011;53846;51.984;5.890;2022-10-16T14:27:02;5.60;;;5.40;;
66933;SDS011;53846;51.984;5.890;2022-10-16T14:30:03;4.90;;;4.70;;
66933;SDS011;53846;51.984;5.890;2022-10-16T14:32:53;15.57;;;14.88;;
66933;SDS011;53846;51.984;5.890;2022-10-16T14:35:28;5.72;;;5.53;;
66933;SDS011;53846;51.984;5.890;2022-10-16T14:38:02;5.47;;;5.28;;
66933;SDS011;53846;51.984;5.890;2022-10-16T14:40:34;5.43;;;5.22;;
66933;SDS011;53846;51.984;5.890;2022-10-16T14:43:05;7.00;;;6.60;;
66933;SDS011;53846;51.984;5.890;2022-10-16T14:45:34;7.47;;;6.68;;
66933;SDS011;53846;51.984;5.890;2022-10-16T14:48:12;7.80;;;7.50;;
66933;SDS011;53846;51.984;5.890;2022-10-16T14:50:46;9.55;;;9.15;;
66933;SDS011;53846;51.984;5.890;2022-10-16T14:53:18;11.05;;;10.55;;
66933;SDS011;53846;51.984;5.890;2022-10-16T14:55:47;14.10;;;13.50;;
66933;SDS011;53846;51.984;5.890;2022-10-16T14:58:20;18.70;;;17.88;;
66933;SDS011;53846;51.984;5.890;2022-10-16T15:00:52;26.08;;;24.88;;
66933;SDS011;53846;51.984;5.890;2022-10-16T15:03:21;32.38;;;30.88;;